3Z9 weather

Haines Seaplane Base
Haines, Alaska, United States

Public forecast

Using degrees Fahrenheit for public forecast. Weather courtesy of forecast.io.

Closest aviation weather report (METAR) to Haines Seaplane Base

Closest report is Haines Airport, 2.6 nm (4.8 km) WNW. Retrieved 2020/06/01 07:49 UTC (36 minutes ago):

PAHN 010749Z AUTO 11011G25KT 070V140 10SM -RA FEW012 BKN016 OVC070 10/07 A2983 RMK PK WND 11027/0655 P0000 TSNO VIA AUTODIAL

Closest aviation forecast (TAF) to Haines Seaplane Base

Closest forecast is Haines Airport, 2.6 nm (4.8 km) WNW. Retrieved 2020/06/01 06:42 UTC (2 hours ago):

TAF PAHN 010539Z 0106/0206 10012G16KT P6SM -SHRA OVC050 FM011500 10010KT P6SM -SHRA OVC035 AMD LTD TO CLD VIS AND WIND